Terminal Aerodrome Forecast
Issued by NWS Sterling, VA

Current Version | Previous Version | Text Only | Print | Product List | Glossary On
Versions: 1 2 3 4 5 6 7 8 9 10 11 12 13 14 15 16 17 18 19 20 21 22
000
FTUS41 KLWX 182300 RRA
TAFIAD
TAF
KIAD 182343Z 1900/2006 16005KT P6SM FEW080 OVC200
     FM191200 32006KT P6SM BKN250
     FM191500 36010KT P6SM SCT250
     FM192100 36005KT P6SM FEW250=

USA.gov is the U.S. government's official web portal to all federal, state and local government web resources and services.